sensor_id;sensor_type;location;lat;lon;timestamp;P1;durP1;ratioP1;P2;durP2;ratioP2
13999;SDS011;7075;53.574;10.054;2022-08-05T00:02:24;16.27;;;8.33;;
13999;SDS011;7075;53.574;10.054;2022-08-05T00:04:50;15.05;;;7.82;;
13999;SDS011;7075;53.574;10.054;2022-08-05T00:07:16;11.45;;;7.32;;
13999;SDS011;7075;53.574;10.054;2022-08-05T00:09:41;15.83;;;7.77;;
13999;SDS011;7075;53.574;10.054;2022-08-05T00:12:07;12.35;;;6.82;;
13999;SDS011;7075;53.574;10.054;2022-08-05T00:14:32;14.47;;;6.60;;
13999;SDS011;7075;53.574;10.054;2022-08-05T00:16:58;10.77;;;6.05;;
13999;SDS011;7075;53.574;10.054;2022-08-05T00:19:24;9.82;;;6.13;;
13999;SDS011;7075;53.574;10.054;2022-08-05T00:21:50;11.95;;;5.75;;
13999;SDS011;7075;53.574;10.054;2022-08-05T00:24:16;10.27;;;5.55;;
13999;SDS011;7075;53.574;10.054;2022-08-05T00:26:41;11.30;;;5.27;;
13999;SDS011;7075;53.574;10.054;2022-08-05T00:29:07;9.65;;;5.07;;
13999;SDS011;7075;53.574;10.054;2022-08-05T00:31:33;10.43;;;5.50;;
13999;SDS011;7075;53.574;10.054;2022-08-05T00:33:59;7.30;;;4.60;;
13999;SDS011;7075;53.574;10.054;2022-08-05T00:36:24;7.05;;;4.05;;
13999;SDS011;7075;53.574;10.054;2022-08-05T00:38:50;9.17;;;4.47;;
13999;SDS011;7075;53.574;10.054;2022-08-05T00:41:25;8.33;;;3.80;;
13999;SDS011;7075;53.574;10.054;2022-08-05T00:43:56;6.57;;;3.50;;
13999;SDS011;7075;53.574;10.054;2022-08-05T00:46:22;8.30;;;3.50;;
13999;SDS011;7075;53.574;10.054;2022-08-05T00:48:47;6.57;;;3.00;;
13999;SDS011;7075;53.574;10.054;2022-08-05T00:51:13;6.07;;;3.13;;
13999;SDS011;7075;53.574;10.054;2022-08-05T00:53:39;6.47;;;2.92;;
13999;SDS011;7075;53.574;10.054;2022-08-05T00:56:05;7.90;;;2.97;;
13999;SDS011;7075;53.574;10.054;2022-08-05T00:58:31;5.03;;;2.83;;
13999;SDS011;7075;53.574;10.054;2022-08-05T01:00:57;6.43;;;3.03;;
13999;SDS011;7075;53.574;10.054;2022-08-05T01:03:22;5.10;;;2.35;;
13999;SDS011;7075;53.574;10.054;2022-08-05T01:05:50;4.50;;;2.38;;
13999;SDS011;7075;53.574;10.054;2022-08-05T01:08:16;6.57;;;2.63;;
13999;SDS011;7075;53.574;10.054;2022-08-05T01:10:43;5.03;;;2.23;;
13999;SDS011;7075;53.574;10.054;2022-08-05T01:13:15;5.25;;;2.13;;
13999;SDS011;7075;53.574;10.054;2022-08-05T01:15:51;5.80;;;2.55;;
13999;SDS011;7075;53.574;10.054;2022-08-05T01:18:23;5.47;;;2.17;;
13999;SDS011;7075;53.574;10.054;2022-08-05T01:31:42;5.90;;;2.35;;
13999;SDS011;7075;53.574;10.054;2022-08-05T01:34:12;4.97;;;1.83;;
13999;SDS011;7075;53.574;10.054;2022-08-05T01:36:43;4.55;;;1.83;;
13999;SDS011;7075;53.574;10.054;2022-08-05T01:39:36;6.05;;;1.98;;
13999;SDS011;7075;53.574;10.054;2022-08-05T01:42:04;4.72;;;1.98;;
13999;SDS011;7075;53.574;10.054;2022-08-05T01:44:31;3.65;;;1.98;;
13999;SDS011;7075;53.574;10.054;2022-08-05T01:46:58;4.68;;;1.88;;
13999;SDS011;7075;53.574;10.054;2022-08-05T01:49:25;3.58;;;1.70;;
13999;SDS011;7075;53.574;10.054;2022-08-05T01:51:54;3.17;;;1.98;;
13999;SDS011;7075;53.574;10.054;2022-08-05T01:54:22;3.85;;;2.00;;
13999;SDS011;7075;53.574;10.054;2022-08-05T01:56:55;3.75;;;1.80;;
13999;SDS011;7075;53.574;10.054;2022-08-05T01:59:22;4.78;;;1.75;;
13999;SDS011;7075;53.574;10.054;2022-08-05T02:01:52;6.20;;;2.00;;
13999;SDS011;7075;53.574;10.054;2022-08-05T02:04:21;2.28;;;1.38;;
13999;SDS011;7075;53.574;10.054;2022-08-05T02:06:50;4.03;;;2.00;;
13999;SDS011;7075;53.574;10.054;2022-08-05T02:09:16;3.42;;;1.92;;
13999;SDS011;7075;53.574;10.054;2022-08-05T02:11:50;2.83;;;1.60;;
13999;SDS011;7075;53.574;10.054;2022-08-05T02:14:48;2.35;;;1.60;;
13999;SDS011;7075;53.574;10.054;2022-08-05T02:17:28;4.25;;;1.80;;
13999;SDS011;7075;53.574;10.054;2022-08-05T02:19:58;3.42;;;1.77;;
13999;SDS011;7075;53.574;10.054;2022-08-05T02:22:27;5.38;;;1.73;;
13999;SDS011;7075;53.574;10.054;2022-08-05T02:25:05;3.47;;;1.77;;
13999;SDS011;7075;53.574;10.054;2022-08-05T02:27:37;5.03;;;1.77;;
13999;SDS011;7075;53.574;10.054;2022-08-05T02:30:04;2.53;;;1.30;;
13999;SDS011;7075;53.574;10.054;2022-08-05T02:32:32;2.67;;;1.50;;
13999;SDS011;7075;53.574;10.054;2022-08-05T02:34:59;3.60;;;1.48;;
13999;SDS011;7075;53.574;10.054;2022-08-05T02:37:29;2.58;;;1.35;;
13999;SDS011;7075;53.574;10.054;2022-08-05T02:39:57;2.85;;;1.70;;
13999;SDS011;7075;53.574;10.054;2022-08-05T02:42:25;3.85;;;1.70;;
13999;SDS011;7075;53.574;10.054;2022-08-05T02:44:51;3.13;;;1.80;;
13999;SDS011;7075;53.574;10.054;2022-08-05T02:47:17;4.28;;;1.83;;
13999;SDS011;7075;53.574;10.054;2022-08-05T02:49:44;4.50;;;1.80;;
13999;SDS011;7075;53.574;10.054;2022-08-05T02:52:16;3.60;;;1.88;;
13999;SDS011;7075;53.574;10.054;2022-08-05T02:54:43;4.88;;;2.13;;
13999;SDS011;7075;53.574;10.054;2022-08-05T02:57:11;7.70;;;2.07;;
13999;SDS011;7075;53.574;10.054;2022-08-05T02:59:42;3.88;;;1.88;;
13999;SDS011;7075;53.574;10.054;2022-08-05T03:02:10;4.35;;;2.00;;
13999;SDS011;7075;53.574;10.054;2022-08-05T03:04:42;8.10;;;2.67;;
13999;SDS011;7075;53.574;10.054;2022-08-05T03:07:08;6.95;;;2.10;;
13999;SDS011;7075;53.574;10.054;2022-08-05T03:09:34;3.50;;;1.80;;
13999;SDS011;7075;53.574;10.054;2022-08-05T03:12:01;4.18;;;2.10;;
13999;SDS011;7075;53.574;10.054;2022-08-05T03:14:26;4.40;;;1.90;;
13999;SDS011;7075;53.574;10.054;2022-08-05T03:16:52;5.07;;;2.23;;
13999;SDS011;7075;53.574;10.054;2022-08-05T03:19:18;5.93;;;2.47;;
13999;SDS011;7075;53.574;10.054;2022-08-05T03:21:43;4.15;;;2.25;;
13999;SDS011;7075;53.574;10.054;2022-08-05T03:24:09;3.33;;;1.83;;
13999;SDS011;7075;53.574;10.054;2022-08-05T03:26:35;5.15;;;2.40;;
13999;SDS011;7075;53.574;10.054;2022-08-05T03:29:01;3.95;;;2.08;;
13999;SDS011;7075;53.574;10.054;2022-08-05T03:31:28;4.97;;;2.15;;
13999;SDS011;7075;53.574;10.054;2022-08-05T03:33:55;5.70;;;2.43;;
13999;SDS011;7075;53.574;10.054;2022-08-05T03:36:21;3.22;;;1.80;;
13999;SDS011;7075;53.574;10.054;2022-08-05T03:38:47;5.32;;;2.50;;
13999;SDS011;7075;53.574;10.054;2022-08-05T03:41:14;6.37;;;2.37;;
13999;SDS011;7075;53.574;10.054;2022-08-05T03:43:40;4.85;;;2.15;;
13999;SDS011;7075;53.574;10.054;2022-08-05T03:46:06;6.17;;;2.87;;
13999;SDS011;7075;53.574;10.054;2022-08-05T03:48:31;5.67;;;2.37;;
13999;SDS011;7075;53.574;10.054;2022-08-05T03:51:00;6.20;;;2.33;;
13999;SDS011;7075;53.574;10.054;2022-08-05T03:53:37;5.72;;;2.28;;
13999;SDS011;7075;53.574;10.054;2022-08-05T03:56:12;6.47;;;2.20;;
13999;SDS011;7075;53.574;10.054;2022-08-05T03:58:43;4.53;;;2.17;;
13999;SDS011;7075;53.574;10.054;2022-08-05T04:01:11;4.53;;;2.00;;
13999;SDS011;7075;53.574;10.054;2022-08-05T04:03:38;5.33;;;2.30;;
13999;SDS011;7075;53.574;10.054;2022-08-05T04:06:06;5.57;;;2.20;;
13999;SDS011;7075;53.574;10.054;2022-08-05T04:08:32;3.63;;;2.13;;
13999;SDS011;7075;53.574;10.054;2022-08-05T04:10:59;6.50;;;2.58;;
13999;SDS011;7075;53.574;10.054;2022-08-05T04:13:27;5.40;;;2.47;;
13999;SDS011;7075;53.574;10.054;2022-08-05T04:15:54;5.63;;;2.50;;
13999;SDS011;7075;53.574;10.054;2022-08-05T04:18:21;5.07;;;2.30;;
13999;SDS011;7075;53.574;10.054;2022-08-05T04:20:55;3.85;;;2.28;;
13999;SDS011;7075;53.574;10.054;2022-08-05T04:23:22;6.43;;;2.45;;
13999;SDS011;7075;53.574;10.054;2022-08-05T04:25:49;4.53;;;2.50;;
13999;SDS011;7075;53.574;10.054;2022-08-05T04:28:15;6.35;;;2.83;;
13999;SDS011;7075;53.574;10.054;2022-08-05T04:30:41;4.30;;;2.50;;
13999;SDS011;7075;53.574;10.054;2022-08-05T04:33:07;3.93;;;2.43;;
13999;SDS011;7075;53.574;10.054;2022-08-05T04:35:32;5.75;;;2.70;;
13999;SDS011;7075;53.574;10.054;2022-08-05T04:37:58;5.57;;;2.60;;
13999;SDS011;7075;53.574;10.054;2022-08-05T04:40:23;3.95;;;2.60;;
13999;SDS011;7075;53.574;10.054;2022-08-05T04:42:49;5.50;;;2.73;;
13999;SDS011;7075;53.574;10.054;2022-08-05T04:45:15;6.00;;;2.87;;
13999;SDS011;7075;53.574;10.054;2022-08-05T04:47:40;5.72;;;2.78;;
13999;SDS011;7075;53.574;10.054;2022-08-05T04:50:06;5.57;;;2.70;;
13999;SDS011;7075;53.574;10.054;2022-08-05T04:52:32;5.97;;;2.83;;
13999;SDS011;7075;53.574;10.054;2022-08-05T04:54:58;3.97;;;2.70;;
13999;SDS011;7075;53.574;10.054;2022-08-05T04:57:23;4.50;;;2.72;;
13999;SDS011;7075;53.574;10.054;2022-08-05T04:59:50;5.32;;;2.55;;
13999;SDS011;7075;53.574;10.054;2022-08-05T05:02:16;5.18;;;2.80;;
13999;SDS011;7075;53.574;10.054;2022-08-05T05:04:41;5.28;;;2.80;;
13999;SDS011;7075;53.574;10.054;2022-08-05T05:07:07;5.63;;;3.07;;
13999;SDS011;7075;53.574;10.054;2022-08-05T05:09:32;4.45;;;2.63;;
13999;SDS011;7075;53.574;10.054;2022-08-05T05:11:58;4.27;;;2.60;;
13999;SDS011;7075;53.574;10.054;2022-08-05T05:14:25;4.03;;;2.80;;
13999;SDS011;7075;53.574;10.054;2022-08-05T05:16:51;6.93;;;2.70;;
13999;SDS011;7075;53.574;10.054;2022-08-05T05:19:16;6.22;;;3.22;;
13999;SDS011;7075;53.574;10.054;2022-08-05T05:21:42;4.03;;;2.37;;
13999;SDS011;7075;53.574;10.054;2022-08-05T05:24:07;6.10;;;3.10;;
13999;SDS011;7075;53.574;10.054;2022-08-05T05:26:33;5.03;;;2.90;;
13999;SDS011;7075;53.574;10.054;2022-08-05T05:28:58;5.72;;;2.80;;
13999;SDS011;7075;53.574;10.054;2022-08-05T05:31:24;6.95;;;2.88;;
13999;SDS011;7075;53.574;10.054;2022-08-05T05:33:50;6.00;;;3.03;;
13999;SDS011;7075;53.574;10.054;2022-08-05T05:36:15;3.55;;;2.55;;
13999;SDS011;7075;53.574;10.054;2022-08-05T05:38:41;4.17;;;2.57;;
13999;SDS011;7075;53.574;10.054;2022-08-05T05:41:06;5.63;;;2.85;;
13999;SDS011;7075;53.574;10.054;2022-08-05T05:43:32;4.97;;;2.80;;
13999;SDS011;7075;53.574;10.054;2022-08-05T05:45:57;5.07;;;2.70;;
13999;SDS011;7075;53.574;10.054;2022-08-05T05:48:23;5.40;;;2.50;;
13999;SDS011;7075;53.574;10.054;2022-08-05T05:50:49;4.37;;;3.00;;
13999;SDS011;7075;53.574;10.054;2022-08-05T05:53:16;3.83;;;2.60;;
13999;SDS011;7075;53.574;10.054;2022-08-05T05:55:42;3.53;;;2.87;;
13999;SDS011;7075;53.574;10.054;2022-08-05T05:58:07;4.38;;;2.72;;
13999;SDS011;7075;53.574;10.054;2022-08-05T06:00:33;4.50;;;2.90;;
13999;SDS011;7075;53.574;10.054;2022-08-05T06:02:59;5.93;;;2.60;;
13999;SDS011;7075;53.574;10.054;2022-08-05T06:05:26;4.77;;;2.73;;
13999;SDS011;7075;53.574;10.054;2022-08-05T06:07:52;3.83;;;2.30;;
13999;SDS011;7075;53.574;10.054;2022-08-05T06:10:17;3.42;;;2.70;;
13999;SDS011;7075;53.574;10.054;2022-08-05T06:12:43;4.70;;;2.73;;
13999;SDS011;7075;53.574;10.054;2022-08-05T06:15:08;3.47;;;2.70;;
13999;SDS011;7075;53.574;10.054;2022-08-05T06:17:34;4.38;;;2.90;;
13999;SDS011;7075;53.574;10.054;2022-08-05T06:20:00;5.25;;;2.55;;
13999;SDS011;7075;53.574;10.054;2022-08-05T06:22:29;6.53;;;3.00;;
13999;SDS011;7075;53.574;10.054;2022-08-05T06:24:56;5.53;;;3.13;;
13999;SDS011;7075;53.574;10.054;2022-08-05T06:27:22;5.73;;;2.90;;
13999;SDS011;7075;53.574;10.054;2022-08-05T06:29:47;4.63;;;2.60;;
13999;SDS011;7075;53.574;10.054;2022-08-05T06:32:13;5.40;;;2.92;;
13999;SDS011;7075;53.574;10.054;2022-08-05T06:34:39;6.10;;;3.13;;
13999;SDS011;7075;53.574;10.054;2022-08-05T06:37:04;7.60;;;2.90;;
13999;SDS011;7075;53.574;10.054;2022-08-05T06:39:30;5.78;;;3.28;;
13999;SDS011;7075;53.574;10.054;2022-08-05T06:41:56;5.57;;;2.90;;
13999;SDS011;7075;53.574;10.054;2022-08-05T06:44:25;5.53;;;3.17;;
13999;SDS011;7075;53.574;10.054;2022-08-05T06:46:51;4.13;;;2.88;;
13999;SDS011;7075;53.574;10.054;2022-08-05T06:49:16;4.80;;;2.80;;
13999;SDS011;7075;53.574;10.054;2022-08-05T06:51:42;6.32;;;3.45;;
13999;SDS011;7075;53.574;10.054;2022-08-05T06:54:08;6.63;;;3.07;;
13999;SDS011;7075;53.574;10.054;2022-08-05T06:56:33;8.47;;;2.90;;
13999;SDS011;7075;53.574;10.054;2022-08-05T06:58:59;6.80;;;3.30;;
13999;SDS011;7075;53.574;10.054;2022-08-05T07:01:24;4.33;;;2.50;;
13999;SDS011;7075;53.574;10.054;2022-08-05T07:03:50;5.57;;;2.58;;
13999;SDS011;7075;53.574;10.054;2022-08-05T07:06:16;4.90;;;3.00;;
13999;SDS011;7075;53.574;10.054;2022-08-05T07:08:42;7.00;;;3.17;;
13999;SDS011;7075;53.574;10.054;2022-08-05T07:11:08;4.72;;;2.17;;
13999;SDS011;7075;53.574;10.054;2022-08-05T07:13:34;4.50;;;2.60;;
13999;SDS011;7075;53.574;10.054;2022-08-05T07:16:19;5.63;;;2.50;;
13999;SDS011;7075;53.574;10.054;2022-08-05T07:19:03;4.78;;;2.55;;
13999;SDS011;7075;53.574;10.054;2022-08-05T07:21:29;3.67;;;2.07;;
13999;SDS011;7075;53.574;10.054;2022-08-05T07:23:55;2.90;;;2.17;;
13999;SDS011;7075;53.574;10.054;2022-08-05T07:26:21;2.78;;;2.05;;
13999;SDS011;7075;53.574;10.054;2022-08-05T07:28:47;3.53;;;2.00;;
13999;SDS011;7075;53.574;10.054;2022-08-05T07:31:14;3.30;;;2.00;;
13999;SDS011;7075;53.574;10.054;2022-08-05T07:33:40;3.25;;;2.22;;
13999;SDS011;7075;53.574;10.054;2022-08-05T07:36:06;4.27;;;2.33;;
13999;SDS011;7075;53.574;10.054;2022-08-05T07:38:32;3.67;;;2.08;;
13999;SDS011;7075;53.574;10.054;2022-08-05T07:40:59;2.53;;;1.87;;
13999;SDS011;7075;53.574;10.054;2022-08-05T07:43:25;2.72;;;1.83;;
13999;SDS011;7075;53.574;10.054;2022-08-05T07:45:51;3.97;;;2.33;;
13999;SDS011;7075;53.574;10.054;2022-08-05T07:48:16;2.90;;;1.83;;
13999;SDS011;7075;53.574;10.054;2022-08-05T07:50:42;4.87;;;1.97;;
13999;SDS011;7075;53.574;10.054;2022-08-05T07:53:08;4.70;;;2.37;;
13999;SDS011;7075;53.574;10.054;2022-08-05T07:55:34;3.90;;;2.30;;
13999;SDS011;7075;53.574;10.054;2022-08-05T07:58:00;3.30;;;2.10;;
13999;SDS011;7075;53.574;10.054;2022-08-05T08:00:26;4.23;;;2.30;;
13999;SDS011;7075;53.574;10.054;2022-08-05T08:02:51;3.65;;;1.85;;
13999;SDS011;7075;53.574;10.054;2022-08-05T08:05:17;2.77;;;2.00;;
13999;SDS011;7075;53.574;10.054;2022-08-05T08:07:42;4.05;;;2.13;;
13999;SDS011;7075;53.574;10.054;2022-08-05T08:10:08;4.78;;;2.40;;
13999;SDS011;7075;53.574;10.054;2022-08-05T08:12:34;3.87;;;2.50;;
13999;SDS011;7075;53.574;10.054;2022-08-05T08:14:59;3.23;;;2.27;;
13999;SDS011;7075;53.574;10.054;2022-08-05T08:17:25;7.80;;;2.67;;
13999;SDS011;7075;53.574;10.054;2022-08-05T08:19:51;5.50;;;2.30;;
13999;SDS011;7075;53.574;10.054;2022-08-05T08:22:17;4.17;;;2.60;;
13999;SDS011;7075;53.574;10.054;2022-08-05T08:24:42;3.27;;;2.07;;
13999;SDS011;7075;53.574;10.054;2022-08-05T08:27:08;5.05;;;2.35;;
13999;SDS011;7075;53.574;10.054;2022-08-05T08:29:33;4.43;;;2.27;;
13999;SDS011;7075;53.574;10.054;2022-08-05T08:31:59;3.95;;;2.53;;
13999;SDS011;7075;53.574;10.054;2022-08-05T08:34:25;6.43;;;2.60;;
13999;SDS011;7075;53.574;10.054;2022-08-05T08:36:51;4.60;;;2.25;;
13999;SDS011;7075;53.574;10.054;2022-08-05T08:39:18;5.38;;;2.85;;
13999;SDS011;7075;53.574;10.054;2022-08-05T08:41:49;5.30;;;2.50;;
13999;SDS011;7075;53.574;10.054;2022-08-05T08:44:16;4.15;;;2.20;;
13999;SDS011;7075;53.574;10.054;2022-08-05T08:46:43;4.78;;;2.60;;
13999;SDS011;7075;53.574;10.054;2022-08-05T08:49:11;5.22;;;2.20;;
13999;SDS011;7075;53.574;10.054;2022-08-05T08:51:39;4.50;;;2.53;;
13999;SDS011;7075;53.574;10.054;2022-08-05T08:54:06;4.28;;;2.70;;
13999;SDS011;7075;53.574;10.054;2022-08-05T08:56:32;5.25;;;2.83;;
13999;SDS011;7075;53.574;10.054;2022-08-05T08:58:59;3.78;;;2.45;;
13999;SDS011;7075;53.574;10.054;2022-08-05T09:01:25;3.37;;;2.50;;
13999;SDS011;7075;53.574;10.054;2022-08-05T09:03:52;6.63;;;2.20;;
13999;SDS011;7075;53.574;10.054;2022-08-05T09:06:18;4.15;;;2.42;;
13999;SDS011;7075;53.574;10.054;2022-08-05T09:08:44;6.50;;;2.20;;
13999;SDS011;7075;53.574;10.054;2022-08-05T09:11:10;5.03;;;2.10;;
13999;SDS011;7075;53.574;10.054;2022-08-05T09:13:37;3.20;;;2.17;;
13999;SDS011;7075;53.574;10.054;2022-08-05T09:16:04;2.87;;;1.60;;
13999;SDS011;7075;53.574;10.054;2022-08-05T09:18:32;2.55;;;1.67;;
13999;SDS011;7075;53.574;10.054;2022-08-05T09:21:00;3.63;;;1.90;;
13999;SDS011;7075;53.574;10.054;2022-08-05T09:23:26;3.00;;;1.90;;
13999;SDS011;7075;53.574;10.054;2022-08-05T09:25:52;3.73;;;1.77;;
13999;SDS011;7075;53.574;10.054;2022-08-05T09:28:33;3.40;;;1.80;;
13999;SDS011;7075;53.574;10.054;2022-08-05T09:33:45;4.50;;;2.07;;
13999;SDS011;7075;53.574;10.054;2022-08-05T09:36:22;5.85;;;2.13;;
13999;SDS011;7075;53.574;10.054;2022-08-05T09:38:55;2.88;;;1.70;;
13999;SDS011;7075;53.574;10.054;2022-08-05T09:41:22;3.90;;;2.00;;
13999;SDS011;7075;53.574;10.054;2022-08-05T09:43:48;2.38;;;1.63;;
13999;SDS011;7075;53.574;10.054;2022-08-05T09:46:24;4.20;;;1.90;;
13999;SDS011;7075;53.574;10.054;2022-08-05T09:48:55;4.55;;;1.92;;
13999;SDS011;7075;53.574;10.054;2022-08-05T09:51:55;8.93;;;2.33;;
13999;SDS011;7075;53.574;10.054;2022-08-05T09:54:14;3.15;;;1.50;;
13999;SDS011;7075;53.574;10.054;2022-08-05T09:56:39;4.40;;;2.20;;
13999;SDS011;7075;53.574;10.054;2022-08-05T09:59:11;5.40;;;1.85;;
13999;SDS011;7075;53.574;10.054;2022-08-05T10:01:40;3.65;;;1.95;;
13999;SDS011;7075;53.574;10.054;2022-08-05T10:06:36;3.25;;;1.45;;
13999;SDS011;7075;53.574;10.054;2022-08-05T10:11:37;3.22;;;1.95;;
13999;SDS011;7075;53.574;10.054;2022-08-05T10:14:23;3.75;;;1.95;;
13999;SDS011;7075;53.574;10.054;2022-08-05T10:16:53;3.22;;;2.20;;
13999;SDS011;7075;53.574;10.054;2022-08-05T10:19:20;4.35;;;2.20;;
13999;SDS011;7075;53.574;10.054;2022-08-05T10:21:48;4.57;;;2.40;;
13999;SDS011;7075;53.574;10.054;2022-08-05T10:24:15;4.05;;;1.92;;
13999;SDS011;7075;53.574;10.054;2022-08-05T10:26:43;3.45;;;2.05;;
13999;SDS011;7075;53.574;10.054;2022-08-05T10:29:10;4.13;;;1.90;;
13999;SDS011;7075;53.574;10.054;2022-08-05T10:31:36;3.80;;;1.80;;
13999;SDS011;7075;53.574;10.054;2022-08-05T10:34:06;4.47;;;2.50;;
13999;SDS011;7075;53.574;10.054;2022-08-05T10:36:34;4.28;;;2.08;;
13999;SDS011;7075;53.574;10.054;2022-08-05T10:39:03;4.80;;;1.98;;
13999;SDS011;7075;53.574;10.054;2022-08-05T10:41:37;3.25;;;1.73;;
13999;SDS011;7075;53.574;10.054;2022-08-05T10:44:11;3.88;;;2.00;;
13999;SDS011;7075;53.574;10.054;2022-08-05T10:46:43;5.23;;;2.23;;
13999;SDS011;7075;53.574;10.054;2022-08-05T10:49:16;3.33;;;1.60;;
13999;SDS011;7075;53.574;10.054;2022-08-05T10:51:47;3.72;;;1.50;;
13999;SDS011;7075;53.574;10.054;2022-08-05T10:54:14;4.15;;;1.80;;
13999;SDS011;7075;53.574;10.054;2022-08-05T10:59:24;5.10;;;1.80;;
13999;SDS011;7075;53.574;10.054;2022-08-05T11:02:12;2.85;;;1.67;;
13999;SDS011;7075;53.574;10.054;2022-08-05T11:04:42;2.40;;;1.70;;
13999;SDS011;7075;53.574;10.054;2022-08-05T11:07:12;3.13;;;1.77;;
13999;SDS011;7075;53.574;10.054;2022-08-05T11:09:46;3.38;;;1.77;;
13999;SDS011;7075;53.574;10.054;2022-08-05T11:15:15;3.50;;;1.58;;
13999;SDS011;7075;53.574;10.054;2022-08-05T11:17:44;3.10;;;1.58;;
13999;SDS011;7075;53.574;10.054;2022-08-05T11:20:52;4.13;;;1.60;;
13999;SDS011;7075;53.574;10.054;2022-08-05T11:23:14;3.17;;;1.67;;
13999;SDS011;7075;53.574;10.054;2022-08-05T11:28:52;3.20;;;1.00;;
13999;SDS011;7075;53.574;10.054;2022-08-05T11:31:20;2.72;;;1.20;;
13999;SDS011;7075;53.574;10.054;2022-08-05T11:36:17;7.07;;;1.30;;
13999;SDS011;7075;53.574;10.054;2022-08-05T11:43:39;1.95;;;0.90;;
13999;SDS011;7075;53.574;10.054;2022-08-05T11:46:24;3.43;;;1.23;;
13999;SDS011;7075;53.574;10.054;2022-08-05T11:48:50;3.23;;;1.23;;
13999;SDS011;7075;53.574;10.054;2022-08-05T11:51:16;1.80;;;1.05;;
13999;SDS011;7075;53.574;10.054;2022-08-05T11:53:42;2.60;;;1.23;;
13999;SDS011;7075;53.574;10.054;2022-08-05T11:56:08;2.33;;;1.00;;
13999;SDS011;7075;53.574;10.054;2022-08-05T11:58:34;2.13;;;1.20;;
13999;SDS011;7075;53.574;10.054;2022-08-05T12:01:08;3.42;;;1.50;;
13999;SDS011;7075;53.574;10.054;2022-08-05T12:03:42;3.38;;;1.15;;
13999;SDS011;7075;53.574;10.054;2022-08-05T12:06:25;2.63;;;1.08;;
13999;SDS011;7075;53.574;10.054;2022-08-05T12:08:56;2.78;;;1.10;;
13999;SDS011;7075;53.574;10.054;2022-08-05T12:11:27;2.43;;;1.20;;
13999;SDS011;7075;53.574;10.054;2022-08-05T12:13:57;3.05;;;1.30;;
13999;SDS011;7075;53.574;10.054;2022-08-05T12:16:23;1.60;;;1.00;;
13999;SDS011;7075;53.574;10.054;2022-08-05T12:18:51;2.28;;;1.10;;
13999;SDS011;7075;53.574;10.054;2022-08-05T12:21:19;3.10;;;1.27;;
13999;SDS011;7075;53.574;10.054;2022-08-05T12:24:05;3.30;;;1.50;;
13999;SDS011;7075;53.574;10.054;2022-08-05T12:26:34;3.20;;;1.30;;
13999;SDS011;7075;53.574;10.054;2022-08-05T12:29:04;2.13;;;1.33;;
13999;SDS011;7075;53.574;10.054;2022-08-05T12:31:38;2.78;;;1.55;;
13999;SDS011;7075;53.574;10.054;2022-08-05T12:34:05;2.60;;;1.20;;
13999;SDS011;7075;53.574;10.054;2022-08-05T12:36:32;2.63;;;1.25;;
13999;SDS011;7075;53.574;10.054;2022-08-05T12:38:59;3.10;;;1.45;;
13999;SDS011;7075;53.574;10.054;2022-08-05T12:41:29;1.83;;;1.30;;
13999;SDS011;7075;53.574;10.054;2022-08-05T12:44:00;1.50;;;1.23;;
13999;SDS011;7075;53.574;10.054;2022-08-05T12:46:31;2.90;;;1.75;;
13999;SDS011;7075;53.574;10.054;2022-08-05T12:48:59;4.72;;;1.20;;
13999;SDS011;7075;53.574;10.054;2022-08-05T12:51:51;3.08;;;1.88;;
13999;SDS011;7075;53.574;10.054;2022-08-05T12:54:20;3.60;;;1.50;;
13999;SDS011;7075;53.574;10.054;2022-08-05T12:56:51;3.72;;;2.15;;
13999;SDS011;7075;53.574;10.054;2022-08-05T12:59:27;2.25;;;1.40;;
13999;SDS011;7075;53.574;10.054;2022-08-05T13:01:58;2.28;;;1.30;;
13999;SDS011;7075;53.574;10.054;2022-08-05T13:04:28;3.23;;;1.40;;
13999;SDS011;7075;53.574;10.054;2022-08-05T13:06:56;1.85;;;1.05;;
13999;SDS011;7075;53.574;10.054;2022-08-05T13:09:23;2.80;;;1.30;;
13999;SDS011;7075;53.574;10.054;2022-08-05T13:11:49;1.75;;;1.23;;
13999;SDS011;7075;53.574;10.054;2022-08-05T13:14:21;1.23;;;0.93;;
13999;SDS011;7075;53.574;10.054;2022-08-05T13:16:51;4.13;;;2.17;;
13999;SDS011;7075;53.574;10.054;2022-08-05T13:19:20;1.20;;;1.10;;
13999;SDS011;7075;53.574;10.054;2022-08-05T13:21:47;2.47;;;1.42;;
13999;SDS011;7075;53.574;10.054;2022-08-05T13:24:13;1.30;;;1.10;;
13999;SDS011;7075;53.574;10.054;2022-08-05T13:26:40;1.42;;;0.90;;
13999;SDS011;7075;53.574;10.054;2022-08-05T13:29:07;2.40;;;1.60;;
13999;SDS011;7075;53.574;10.054;2022-08-05T13:31:33;3.47;;;1.20;;
13999;SDS011;7075;53.574;10.054;2022-08-05T13:33:58;3.67;;;1.00;;
13999;SDS011;7075;53.574;10.054;2022-08-05T13:36:24;3.43;;;1.40;;
13999;SDS011;7075;53.574;10.054;2022-08-05T13:38:50;4.57;;;1.40;;
13999;SDS011;7075;53.574;10.054;2022-08-05T13:41:15;2.28;;;1.02;;
13999;SDS011;7075;53.574;10.054;2022-08-05T13:43:41;3.60;;;1.20;;
13999;SDS011;7075;53.574;10.054;2022-08-05T13:46:08;2.78;;;1.20;;
13999;SDS011;7075;53.574;10.054;2022-08-05T13:48:36;4.25;;;1.42;;
13999;SDS011;7075;53.574;10.054;2022-08-05T13:51:06;2.35;;;1.10;;
13999;SDS011;7075;53.574;10.054;2022-08-05T13:53:32;2.45;;;1.38;;
13999;SDS011;7075;53.574;10.054;2022-08-05T13:55:59;2.85;;;1.30;;
13999;SDS011;7075;53.574;10.054;2022-08-05T13:58:25;2.90;;;1.50;;
13999;SDS011;7075;53.574;10.054;2022-08-05T14:00:51;4.37;;;1.70;;
13999;SDS011;7075;53.574;10.054;2022-08-05T14:03:16;4.97;;;1.40;;
13999;SDS011;7075;53.574;10.054;2022-08-05T14:05:42;3.85;;;1.25;;
13999;SDS011;7075;53.574;10.054;2022-08-05T14:08:08;3.10;;;1.20;;
13999;SDS011;7075;53.574;10.054;2022-08-05T14:10:34;3.47;;;1.60;;
13999;SDS011;7075;53.574;10.054;2022-08-05T14:12:59;4.47;;;1.48;;
13999;SDS011;7075;53.574;10.054;2022-08-05T14:15:25;2.33;;;1.47;;
13999;SDS011;7075;53.574;10.054;2022-08-05T14:17:52;3.75;;;1.45;;
13999;SDS011;7075;53.574;10.054;2022-08-05T14:20:18;4.10;;;1.60;;
13999;SDS011;7075;53.574;10.054;2022-08-05T14:22:43;2.97;;;1.30;;
13999;SDS011;7075;53.574;10.054;2022-08-05T14:25:09;2.80;;;1.80;;
13999;SDS011;7075;53.574;10.054;2022-08-05T14:27:35;3.13;;;1.40;;
13999;SDS011;7075;53.574;10.054;2022-08-05T14:30:02;3.42;;;1.60;;
13999;SDS011;7075;53.574;10.054;2022-08-05T14:32:28;3.55;;;1.85;;
13999;SDS011;7075;53.574;10.054;2022-08-05T14:34:55;2.72;;;1.45;;
13999;SDS011;7075;53.574;10.054;2022-08-05T14:37:20;3.40;;;1.63;;
13999;SDS011;7075;53.574;10.054;2022-08-05T14:39:46;3.20;;;1.30;;
13999;SDS011;7075;53.574;10.054;2022-08-05T14:42:12;4.82;;;1.83;;
13999;SDS011;7075;53.574;10.054;2022-08-05T14:44:38;4.43;;;1.70;;
13999;SDS011;7075;53.574;10.054;2022-08-05T14:47:03;4.37;;;1.70;;
13999;SDS011;7075;53.574;10.054;2022-08-05T14:49:29;3.13;;;1.50;;
13999;SDS011;7075;53.574;10.054;2022-08-05T14:51:55;3.85;;;1.60;;
13999;SDS011;7075;53.574;10.054;2022-08-05T14:54:20;3.77;;;1.60;;
13999;SDS011;7075;53.574;10.054;2022-08-05T14:56:46;3.97;;;1.67;;
13999;SDS011;7075;53.574;10.054;2022-08-05T14:59:12;3.38;;;1.48;;
13999;SDS011;7075;53.574;10.054;2022-08-05T15:01:38;5.82;;;1.83;;
13999;SDS011;7075;53.574;10.054;2022-08-05T15:04:05;2.60;;;1.33;;
13999;SDS011;7075;53.574;10.054;2022-08-05T15:06:34;2.35;;;1.38;;
13999;SDS011;7075;53.574;10.054;2022-08-05T15:08:59;3.38;;;1.55;;
13999;SDS011;7075;53.574;10.054;2022-08-05T15:11:25;5.20;;;1.80;;
13999;SDS011;7075;53.574;10.054;2022-08-05T15:13:51;3.67;;;1.50;;
13999;SDS011;7075;53.574;10.054;2022-08-05T15:16:16;2.88;;;1.55;;
13999;SDS011;7075;53.574;10.054;2022-08-05T15:18:42;4.50;;;1.65;;
13999;SDS011;7075;53.574;10.054;2022-08-05T15:21:08;2.73;;;1.70;;
13999;SDS011;7075;53.574;10.054;2022-08-05T15:23:33;2.47;;;1.42;;
13999;SDS011;7075;53.574;10.054;2022-08-05T15:25:59;4.20;;;1.60;;
13999;SDS011;7075;53.574;10.054;2022-08-05T15:28:24;4.63;;;1.77;;